Overview Statistics Trail Chart Weather Telemetry Raw packets
 

This is the latest recevied weather packets stored in our database for station/object S51UL-6. If no packets are shown the sender has not sent any weather packets the latest 10 day(s).

<< 71 72 73 74 75 76 77 >>
Time Temp. Humidity Pressure Rain* Wind** Luminosity Snow
1787980050 20° C 69% 1016.3 hPa 0 mm - - -
1787979749 20° C 69% 1016.3 hPa 0 mm - - -
1787979449 20° C 68% 1016.4 hPa 0 mm - - -
1787978250 20.56° C 66% 1016.4 hPa 0 mm - - -
1787977049 20.56° C 69% 1016.3 hPa 0 mm - - -
1787974650 20.56° C 77% 1015.8 hPa 0 mm - - -
1787974050 20.56° C 77% 1015.6 hPa 0 mm - - -
1787973453 20.56° C 77% 1015.4 hPa 0 mm - - -
1787972852 21.11° C 76% 1015.1 hPa 0 mm - - -
1787972550 21.11° C 75% 1015 hPa 0 mm - - -
1787972251 21.11° C 74% 1014.6 hPa 0 mm - - -
1787970451 22.78° C 68% 1014.3 hPa 0 mm - - -
1787969251 22.78° C 68% 1013.6 hPa 0 mm - - -
1787968951 23.33° C 67% 1013.5 hPa 0 mm - - -
1787968651 23.33° C 67% 1013.5 hPa 0 mm - - -
1787968352 24.44° C 65% 1013.6 hPa 0 mm - - -
1787968051 24.44° C 63% 1013.2 hPa 0 mm - - -
1787967454 25° C 61% 1013.1 hPa 0 mm - - -
1787967151 25° C 61% 1013.1 hPa 0 mm - - -
1787966852 25.56° C 61% 1013 hPa 0 mm - - -
1787966551 25.56° C 59% 1012.6 hPa 0 mm - - -
1787966251 25.56° C 58% 1012.8 hPa 0 mm - - -
1787965952 25.56° C 57% 1013.4 hPa 0 mm - - -
1787965651 25.56° C 57% 1013 hPa 0 mm - - -
1787965351 25.56° C 58% 1012.5 hPa 0 mm - - -

* Rain latest hour (hover to see other rain measurements)
** Current wind speed in m/s (hover to see current wind gust speed)